createdAt,value
2023-05-09T00:00:58.130Z,8.10
2023-05-09T00:03:24.884Z,8.10
2023-05-09T00:05:51.916Z,8.10
2023-05-09T00:08:18.748Z,8.10
2023-05-09T00:10:45.559Z,8.10
2023-05-09T00:13:12.454Z,8.10
2023-05-09T00:15:39.367Z,8.20
2023-05-09T00:18:06.372Z,8.30
2023-05-09T00:20:34.143Z,8.40
2023-05-09T00:23:01.083Z,8.30
2023-05-09T00:25:28.009Z,8.30
2023-05-09T00:27:54.806Z,8.30
2023-05-09T00:30:21.702Z,8.40
2023-05-09T00:32:48.549Z,8.30
2023-05-09T00:35:16.324Z,8.40
2023-05-09T00:37:43.280Z,8.40
2023-05-09T00:40:10.498Z,8.40
2023-05-09T00:42:37.393Z,8.40
2023-05-09T00:45:04.629Z,8.40
2023-05-09T00:47:31.692Z,8.30
2023-05-09T00:49:59.466Z,8.30
2023-05-09T00:52:26.782Z,8.30
2023-05-09T00:54:54.858Z,8.30
2023-05-09T00:57:22.473Z,8.30
2023-05-09T00:59:49.789Z,8.20
2023-05-09T01:02:18.269Z,8.20
2023-05-09T01:04:46.531Z,8.30
2023-05-09T01:07:31.123Z,8.20
2023-05-09T01:10:22.593Z,8.10
2023-05-09T01:13:03.276Z,8.10
2023-05-09T01:15:51.387Z,8.20
2023-05-09T01:18:43.293Z,8.10
2023-05-09T01:21:21.109Z,8.20
2023-05-09T01:23:53.928Z,8.20
2023-05-09T01:26:42.428Z,8.20
2023-05-09T01:29:37.321Z,8.20
2023-05-09T01:32:09.732Z,8.30
2023-05-09T01:34:40.357Z,8.20
2023-05-09T01:37:08.152Z,8.30
2023-05-09T01:39:38.784Z,8.20
2023-05-09T01:42:09.566Z,8.20
2023-05-09T01:44:39.898Z,8.20
2023-05-09T01:47:09.519Z,8.30
2023-05-09T01:49:38.769Z,8.30
2023-05-09T01:52:11.833Z,8.30
2023-05-09T01:54:39.465Z,8.30
2023-05-09T01:57:08.187Z,8.20
2023-05-09T01:59:36.378Z,8.30
2023-05-09T02:02:04.454Z,8.30
2023-05-09T02:04:32.292Z,8.30
2023-05-09T02:07:00.382Z,8.40
2023-05-09T02:09:27.316Z,8.30
2023-05-09T02:11:54.659Z,8.40
2023-05-09T02:14:22.036Z,8.30
2023-05-09T02:16:49.149Z,8.40
2023-05-09T02:19:16.922Z,8.40
2023-05-09T02:21:44.028Z,8.40
2023-05-09T02:24:10.961Z,8.40
2023-05-09T02:26:38.847Z,8.40
2023-05-09T02:29:07.585Z,8.30
2023-05-09T02:31:36.208Z,8.40
2023-05-09T02:34:05.062Z,8.40
2023-05-09T02:36:32.826Z,8.40
2023-05-09T02:39:00.277Z,8.30
2023-05-09T02:41:30.164Z,8.30
2023-05-09T02:43:56.991Z,8.40
2023-05-09T02:46:23.958Z,8.30
2023-05-09T02:48:51.436Z,8.40
2023-05-09T02:51:18.367Z,8.30
2023-05-09T02:53:45.209Z,8.40
2023-05-09T02:56:12.299Z,8.40
2023-05-09T02:58:39.126Z,8.50
2023-05-09T03:01:06.006Z,8.50
2023-05-09T03:03:34.682Z,8.60
2023-05-09T03:06:01.673Z,8.50
2023-05-09T03:08:28.482Z,8.50
2023-05-09T03:10:55.290Z,8.50
2023-05-09T03:13:22.113Z,8.60
2023-05-09T03:15:49.140Z,8.60
2023-05-09T03:18:15.925Z,8.60
2023-05-09T03:20:42.769Z,8.60
2023-05-09T03:23:10.268Z,8.70
2023-05-09T03:25:37.074Z,8.70
2023-05-09T03:28:03.913Z,8.60
2023-05-09T03:30:30.865Z,8.60
2023-05-09T03:32:57.793Z,8.60
2023-05-09T03:35:24.552Z,8.50
2023-05-09T03:37:51.351Z,8.70
2023-05-09T03:40:18.158Z,8.60
2023-05-09T03:42:44.946Z,8.60
2023-05-09T03:45:12.501Z,8.70
2023-05-09T03:47:39.500Z,8.60
2023-05-09T03:50:07.136Z,8.50
2023-05-09T03:52:33.935Z,8.50
2023-05-09T03:55:00.725Z,8.60
2023-05-09T03:57:27.682Z,8.70
2023-05-09T03:59:54.504Z,8.60
2023-05-09T04:02:21.627Z,8.70
2023-05-09T04:04:49.912Z,8.80
2023-05-09T04:07:16.763Z,8.90
2023-05-09T04:09:43.589Z,9.00
2023-05-09T04:12:10.567Z,9.00
2023-05-09T04:14:38.154Z,9.00
2023-05-09T04:17:05.019Z,9.20
2023-05-09T04:19:32.015Z,9.30
2023-05-09T04:21:58.751Z,9.40
2023-05-09T04:24:25.659Z,9.40
2023-05-09T04:26:52.505Z,9.40
2023-05-09T04:29:19.310Z,9.40
2023-05-09T04:31:46.233Z,9.40
2023-05-09T04:34:13.257Z,9.40
2023-05-09T04:36:40.052Z,9.40
2023-05-09T04:39:08.143Z,9.40
2023-05-09T04:41:34.964Z,9.60
2023-05-09T04:44:02.069Z,9.60
2023-05-09T04:46:28.907Z,9.70
2023-05-09T04:48:55.774Z,9.80
2023-05-09T04:51:22.588Z,9.80
2023-05-09T04:53:49.378Z,9.90
2023-05-09T04:56:16.245Z,10.00
2023-05-09T04:58:43.011Z,10.20
2023-05-09T05:01:09.846Z,10.30
2023-05-09T05:03:36.662Z,10.30
2023-05-09T05:06:03.492Z,10.60
2023-05-09T05:08:30.426Z,11.00
2023-05-09T05:10:57.390Z,11.00
2023-05-09T05:13:24.245Z,10.80
2023-05-09T05:15:51.873Z,11.00
2023-05-09T05:18:18.715Z,10.80
2023-05-09T05:20:45.812Z,11.20
2023-05-09T05:23:12.588Z,11.60
2023-05-09T05:25:39.426Z,11.90
2023-05-09T05:28:06.447Z,11.90
2023-05-09T05:30:34.517Z,12.40
2023-05-09T05:33:01.705Z,12.70
2023-05-09T05:35:29.408Z,12.60
2023-05-09T05:37:56.289Z,12.70
2023-05-09T05:40:23.160Z,12.70
2023-05-09T05:42:50.145Z,12.90
2023-05-09T05:45:17.120Z,13.40
2023-05-09T05:47:44.170Z,14.00
2023-05-09T05:50:12.146Z,14.40
2023-05-09T05:52:40.061Z,14.40
2023-05-09T05:55:07.706Z,13.90
2023-05-09T05:57:35.411Z,13.80
2023-05-09T06:00:04.521Z,13.80
2023-05-09T06:02:31.373Z,13.70
2023-05-09T06:04:58.292Z,14.00
2023-05-09T06:07:25.167Z,13.90
2023-05-09T06:09:52.012Z,14.00
2023-05-09T06:12:18.874Z,14.10
2023-05-09T06:14:45.704Z,14.10
2023-05-09T06:17:12.796Z,13.90
2023-05-09T06:19:39.644Z,13.60
2023-05-09T06:22:06.501Z,13.60
2023-05-09T06:24:36.302Z,14.20
2023-05-09T06:27:04.233Z,14.70
2023-05-09T06:29:31.060Z,14.90
2023-05-09T06:31:57.877Z,15.10
2023-05-09T06:34:24.668Z,15.20
2023-05-09T06:36:51.522Z,15.30
2023-05-09T06:39:18.389Z,15.50
2023-05-09T06:41:45.255Z,15.80
2023-05-09T06:44:12.121Z,15.90
2023-05-09T06:46:39.029Z,16.00
2023-05-09T06:49:08.701Z,16.10
2023-05-09T06:51:35.520Z,16.20
2023-05-09T06:54:02.275Z,16.00
2023-05-09T06:56:29.139Z,16.70
2023-05-09T06:58:56.108Z,17.10
2023-05-09T07:01:23.097Z,18.00
2023-05-09T07:03:49.947Z,18.10
2023-05-09T07:06:16.701Z,18.00
2023-05-09T07:08:43.518Z,17.70
2023-05-09T07:11:10.477Z,18.10
2023-05-09T07:13:37.273Z,18.20
2023-05-09T07:16:04.344Z,17.90
2023-05-09T07:18:31.213Z,18.10
2023-05-09T07:20:58.058Z,18.20
2023-05-09T07:23:26.166Z,18.30
2023-05-09T07:25:57.686Z,18.90
2023-05-09T07:28:24.955Z,19.10
2023-05-09T07:30:51.949Z,18.80
2023-05-09T07:33:18.735Z,18.50
2023-05-09T07:35:45.678Z,18.30
2023-05-09T07:38:12.516Z,18.10
2023-05-09T07:40:39.382Z,18.20
2023-05-09T07:43:06.259Z,17.60
2023-05-09T07:45:33.466Z,16.60
2023-05-09T07:48:00.505Z,15.70
2023-05-09T07:50:27.510Z,15.60
2023-05-09T07:52:55.682Z,15.50
2023-05-09T07:55:22.576Z,15.70
2023-05-09T07:57:49.458Z,16.00
2023-05-09T08:00:16.764Z,16.10
2023-05-09T08:02:43.732Z,15.90
2023-05-09T08:05:14.004Z,15.20
2023-05-09T08:07:41.212Z,15.00
2023-05-09T08:10:11.767Z,14.60
2023-05-09T08:12:51.309Z,14.60
2023-05-09T08:18:20.300Z,14.00
2023-05-09T08:20:47.133Z,14.20
2023-05-09T08:23:14.160Z,14.30
2023-05-09T08:25:41.042Z,14.20
2023-05-09T08:28:07.821Z,14.20
2023-05-09T08:30:34.590Z,14.50
2023-05-09T08:33:01.463Z,14.80
2023-05-09T08:35:28.330Z,14.80
2023-05-09T08:37:55.338Z,14.90
2023-05-09T08:40:22.468Z,14.80
2023-05-09T08:42:49.822Z,14.70
2023-05-09T08:45:22.744Z,14.80
2023-05-09T08:47:50.115Z,15.30
2023-05-09T08:50:17.662Z,15.70
2023-05-09T08:52:44.877Z,16.30
2023-05-09T08:55:12.725Z,16.60
2023-05-09T08:57:40.003Z,16.90
2023-05-09T09:00:07.689Z,17.70
2023-05-09T09:02:37.054Z,17.90
2023-05-09T09:05:04.268Z,17.50
2023-05-09T09:07:33.922Z,17.50
2023-05-09T09:10:03.026Z,17.10
2023-05-09T09:12:30.020Z,16.30
2023-05-09T09:15:01.752Z,16.40
2023-05-09T09:17:31.084Z,16.60
2023-05-09T09:20:04.659Z,16.20
2023-05-09T09:22:35.838Z,16.80
2023-05-09T09:25:03.141Z,16.90
2023-05-09T09:27:30.083Z,17.10
2023-05-09T09:30:07.115Z,16.80
2023-05-09T09:32:34.613Z,16.30
2023-05-09T09:35:09.212Z,16.10
2023-05-09T09:37:40.392Z,15.60
2023-05-09T09:40:09.890Z,16.00
2023-05-09T09:42:51.971Z,16.10
2023-05-09T09:45:20.326Z,16.40
2023-05-09T09:47:48.893Z,16.90
2023-05-09T09:50:20.195Z,16.70
2023-05-09T09:52:52.395Z,16.70
2023-05-09T09:55:20.376Z,16.60
2023-05-09T09:57:48.279Z,16.70
2023-05-09T10:00:17.566Z,16.40
2023-05-09T10:03:00.966Z,16.00
2023-05-09T10:05:32.489Z,16.00
2023-05-09T10:08:01.847Z,16.40
2023-05-09T10:10:32.965Z,16.50
2023-05-09T10:13:05.130Z,16.80
2023-05-09T10:15:41.571Z,16.90
2023-05-09T10:18:20.302Z,16.90
2023-05-09T10:20:47.431Z,16.60
2023-05-09T10:23:17.580Z,16.90
2023-05-09T10:25:53.640Z,16.60
2023-05-09T10:28:26.225Z,16.30
2023-05-09T10:31:01.130Z,16.40
2023-05-09T10:33:34.373Z,16.50
2023-05-09T10:36:03.492Z,16.60
2023-05-09T10:38:31.468Z,16.60
2023-05-09T10:40:58.912Z,16.50
2023-05-09T10:43:26.077Z,16.10
2023-05-09T10:45:53.679Z,16.20
2023-05-09T10:48:20.967Z,16.00
2023-05-09T10:50:48.688Z,16.10
2023-05-09T10:53:17.101Z,15.90
2023-05-09T10:55:47.377Z,15.80
2023-05-09T10:58:33.224Z,15.90
2023-05-09T11:01:01.582Z,16.20
2023-05-09T11:03:49.856Z,16.40
2023-05-09T11:06:45.527Z,16.20
2023-05-09T11:09:35.388Z,16.00
2023-05-09T11:12:05.370Z,16.00
2023-05-09T11:14:45.951Z,16.10
2023-05-09T11:17:13.823Z,16.00
2023-05-09T11:19:46.119Z,16.10
2023-05-09T11:22:16.641Z,16.20
2023-05-09T11:24:48.093Z,16.30
2023-05-09T11:27:37.450Z,16.30
2023-05-09T11:30:06.658Z,15.90
2023-05-09T11:32:40.795Z,16.00
2023-05-09T11:35:19.520Z,16.00
2023-05-09T11:37:55.295Z,15.90
2023-05-09T11:40:22.721Z,16.10
2023-05-09T11:42:54.724Z,15.70
2023-05-09T11:45:25.029Z,15.50
2023-05-09T11:47:52.406Z,15.70
2023-05-09T11:50:20.340Z,15.90
2023-05-09T11:52:48.060Z,15.90
2023-05-09T11:55:19.934Z,15.70
2023-05-09T11:57:50.015Z,15.60
2023-05-09T12:00:21.852Z,15.70
2023-05-09T12:02:51.293Z,15.70
2023-05-09T12:05:19.948Z,16.00
2023-05-09T12:07:47.495Z,15.90
2023-05-09T12:10:20.558Z,15.70
2023-05-09T12:12:49.173Z,15.80
2023-05-09T12:15:17.693Z,15.90
2023-05-09T12:17:47.121Z,15.60
2023-05-09T12:20:15.199Z,15.60
2023-05-09T12:22:52.590Z,15.50
2023-05-09T12:25:19.364Z,15.60
2023-05-09T12:27:46.227Z,15.60
2023-05-09T12:30:16.055Z,15.70
2023-05-09T12:32:43.750Z,15.90
2023-05-09T12:35:11.357Z,16.10
2023-05-09T12:37:39.052Z,15.90
2023-05-09T12:40:15.808Z,15.80
2023-05-09T12:42:46.364Z,15.70
2023-05-09T12:45:14.607Z,15.50
2023-05-09T12:47:42.102Z,15.40
2023-05-09T12:50:12.325Z,15.40
2023-05-09T12:52:50.669Z,15.30
2023-05-09T12:55:21.356Z,15.30
2023-05-09T12:58:02.009Z,15.40
2023-05-09T13:00:29.384Z,15.30
2023-05-09T13:02:56.405Z,15.00
2023-05-09T13:05:24.375Z,14.90
2023-05-09T13:07:56.392Z,15.10
2023-05-09T13:10:30.376Z,15.20
2023-05-09T13:12:57.399Z,15.20
2023-05-09T13:15:26.811Z,15.30
2023-05-09T13:17:54.364Z,15.40
2023-05-09T13:20:21.351Z,15.20
2023-05-09T13:22:48.288Z,15.20
2023-05-09T13:25:16.096Z,15.30
2023-05-09T13:27:42.922Z,15.30
2023-05-09T13:30:10.147Z,15.30
2023-05-09T13:32:37.014Z,15.20
2023-05-09T13:35:06.821Z,15.00
2023-05-09T13:37:34.626Z,15.00
2023-05-09T13:40:01.931Z,15.00
2023-05-09T13:42:28.707Z,15.10
2023-05-09T13:44:55.654Z,15.00
2023-05-09T13:47:22.622Z,15.10
2023-05-09T13:49:49.560Z,15.00
2023-05-09T13:52:16.440Z,15.00
2023-05-09T13:54:43.774Z,14.90
2023-05-09T13:57:11.211Z,15.00
2023-05-09T13:59:38.220Z,15.10
2023-05-09T14:02:05.213Z,15.10
2023-05-09T14:04:32.251Z,15.60
2023-05-09T14:06:59.924Z,15.80
2023-05-09T14:09:28.378Z,16.00
2023-05-09T14:11:55.663Z,16.60
2023-05-09T14:14:24.117Z,16.50
2023-05-09T14:16:51.823Z,16.30
2023-05-09T14:19:18.822Z,16.20
2023-05-09T14:21:48.626Z,15.80
2023-05-09T14:24:16.507Z,15.50
2023-05-09T14:26:43.836Z,15.50
2023-05-09T14:29:11.013Z,15.20
2023-05-09T14:31:38.154Z,15.10
2023-05-09T14:34:06.224Z,14.80
2023-05-09T14:36:33.471Z,14.70
2023-05-09T14:39:00.302Z,14.80
2023-05-09T14:41:27.290Z,14.70
2023-05-09T14:43:54.080Z,14.70
2023-05-09T14:46:21.329Z,14.70
2023-05-09T14:48:48.152Z,14.60
2023-05-09T14:51:14.905Z,14.50
2023-05-09T14:53:41.972Z,14.30
2023-05-09T14:56:11.413Z,14.10
2023-05-09T14:58:38.489Z,14.00
2023-05-09T15:01:05.371Z,13.80
2023-05-09T15:03:32.270Z,13.80
2023-05-09T15:05:59.289Z,13.90
2023-05-09T15:08:26.314Z,14.20
2023-05-09T15:10:53.183Z,14.10
2023-05-09T15:13:20.139Z,14.00
2023-05-09T15:15:47.760Z,13.90
2023-05-09T15:18:16.527Z,13.80
2023-05-09T15:20:43.867Z,13.70
2023-05-09T15:23:12.429Z,13.70
2023-05-09T15:25:42.564Z,13.60
2023-05-09T15:28:09.364Z,13.60
2023-05-09T15:30:38.382Z,13.50
2023-05-09T15:33:05.576Z,13.40
2023-05-09T15:35:32.561Z,13.40
2023-05-09T15:37:59.718Z,13.30
2023-05-09T15:40:27.988Z,13.30
2023-05-09T15:42:54.842Z,13.20
2023-05-09T15:45:21.679Z,13.20
2023-05-09T15:47:48.676Z,13.10
2023-05-09T15:50:16.240Z,13.10
2023-05-09T15:52:43.422Z,13.00
2023-05-09T15:55:10.781Z,12.90
2023-05-09T15:57:37.638Z,12.90
2023-05-09T16:00:05.584Z,12.90
2023-05-09T16:02:32.610Z,12.90
2023-05-09T16:04:59.419Z,13.00
2023-05-09T16:07:26.783Z,13.00
2023-05-09T16:09:53.601Z,13.10
2023-05-09T16:12:20.601Z,13.10
2023-05-09T16:14:47.412Z,12.90
2023-05-09T16:17:14.218Z,12.90
2023-05-09T16:19:41.136Z,12.90
2023-05-09T16:22:08.029Z,12.90
2023-05-09T16:24:34.849Z,12.90
2023-05-09T16:27:01.678Z,12.90
2023-05-09T16:29:28.583Z,12.90
2023-05-09T16:31:55.486Z,12.80
2023-05-09T16:34:22.295Z,12.80
2023-05-09T16:36:49.808Z,12.80
2023-05-09T16:39:16.670Z,12.60
2023-05-09T16:41:43.534Z,12.60
2023-05-09T16:44:10.415Z,12.50
2023-05-09T16:46:37.245Z,12.40
2023-05-09T16:49:04.196Z,12.40
2023-05-09T16:51:31.434Z,12.40
2023-05-09T16:53:58.478Z,12.50
2023-05-09T16:56:25.349Z,12.50
2023-05-09T16:58:52.190Z,12.50
2023-05-09T17:01:18.990Z,12.50
2023-05-09T17:03:45.826Z,12.30
2023-05-09T17:06:12.642Z,12.10
2023-05-09T17:08:39.431Z,12.10
2023-05-09T17:11:06.175Z,12.00
2023-05-09T17:13:32.936Z,12.00
2023-05-09T17:15:59.765Z,11.90
2023-05-09T17:18:36.793Z,11.90
2023-05-09T17:21:05.283Z,11.90
2023-05-09T17:23:32.482Z,11.90
2023-05-09T17:25:59.329Z,11.80
2023-05-09T17:28:27.003Z,11.80
2023-05-09T17:30:53.895Z,11.80
2023-05-09T17:33:20.788Z,11.80
2023-05-09T17:35:49.586Z,11.70
2023-05-09T17:38:16.723Z,11.70
2023-05-09T17:40:44.301Z,11.60
2023-05-09T17:43:11.488Z,11.60
2023-05-09T17:45:38.280Z,11.60
2023-05-09T17:48:05.205Z,11.50
2023-05-09T17:50:32.987Z,11.50
2023-05-09T17:52:59.845Z,11.40
2023-05-09T17:55:26.648Z,11.40
2023-05-09T17:57:53.633Z,11.40
2023-05-09T18:00:20.545Z,11.30
2023-05-09T18:02:48.247Z,11.30
2023-05-09T18:05:15.253Z,11.20
2023-05-09T18:07:42.028Z,11.10
2023-05-09T18:10:09.514Z,11.10
2023-05-09T18:12:37.411Z,11.10
2023-05-09T18:15:05.010Z,11.10
2023-05-09T18:17:32.084Z,11.10
2023-05-09T18:19:59.089Z,11.10
2023-05-09T18:22:26.047Z,11.00
2023-05-09T18:24:53.094Z,11.00
2023-05-09T18:27:19.917Z,10.90
2023-05-09T18:29:47.591Z,10.90
2023-05-09T18:32:14.646Z,10.90
2023-05-09T18:34:42.044Z,10.80
2023-05-09T18:37:09.879Z,10.90
2023-05-09T18:39:36.649Z,10.90
2023-05-09T18:42:03.610Z,10.90
2023-05-09T18:44:30.460Z,10.90
2023-05-09T18:46:58.050Z,10.80
2023-05-09T18:49:26.339Z,10.80
2023-05-09T18:51:53.503Z,10.70
2023-05-09T18:54:20.713Z,10.70
2023-05-09T18:56:47.667Z,10.70
2023-05-09T18:59:16.340Z,10.70
2023-05-09T19:01:44.068Z,10.80
2023-05-09T19:04:11.137Z,10.80
2023-05-09T19:06:38.153Z,10.70
2023-05-09T19:09:05.668Z,10.60
2023-05-09T19:11:32.522Z,10.70
2023-05-09T19:13:59.412Z,10.60
2023-05-09T19:16:26.668Z,10.50
2023-05-09T19:19:00.920Z,10.60
2023-05-09T19:21:28.355Z,10.60
2023-05-09T19:23:55.219Z,10.50
2023-05-09T19:26:22.118Z,10.50
2023-05-09T19:28:48.950Z,10.50
2023-05-09T19:31:16.268Z,10.40
2023-05-09T19:33:45.642Z,10.40
2023-05-09T19:36:12.878Z,10.30
2023-05-09T19:38:39.979Z,10.30
2023-05-09T19:41:06.790Z,10.30
2023-05-09T19:43:33.591Z,10.20
2023-05-09T19:46:00.423Z,10.20
2023-05-09T19:48:27.253Z,10.10
2023-05-09T19:50:59.584Z,10.20
2023-05-09T19:53:26.391Z,10.20
2023-05-09T19:55:53.487Z,10.10
2023-05-09T19:58:20.337Z,10.00
2023-05-09T20:00:47.962Z,10.10
2023-05-09T20:03:14.975Z,10.10
2023-05-09T20:05:41.823Z,10.00
2023-05-09T20:08:09.411Z,10.00
2023-05-09T20:10:36.399Z,10.00
2023-05-09T20:13:04.445Z,9.90
2023-05-09T20:15:31.404Z,10.00
2023-05-09T20:17:58.565Z,10.00
2023-05-09T20:20:25.446Z,10.00
2023-05-09T20:22:52.312Z,10.00
2023-05-09T20:25:19.156Z,10.10
2023-05-09T20:27:45.946Z,10.10
2023-05-09T20:30:13.150Z,10.10
2023-05-09T20:32:40.200Z,10.20
2023-05-09T20:35:08.004Z,10.10
2023-05-09T20:37:35.336Z,10.10
2023-05-09T20:40:06.485Z,10.10
2023-05-09T20:42:33.684Z,10.00
2023-05-09T20:45:00.524Z,9.90
2023-05-09T20:47:27.348Z,10.00
2023-05-09T20:49:55.148Z,9.90
2023-05-09T20:52:23.050Z,9.90
2023-05-09T20:54:49.833Z,9.80
2023-05-09T20:57:16.702Z,10.00
2023-05-09T20:59:44.291Z,9.90
2023-05-09T21:02:11.404Z,9.90
2023-05-09T21:04:38.416Z,9.90
2023-05-09T21:07:05.217Z,9.80
2023-05-09T21:09:32.078Z,9.80
2023-05-09T21:12:00.629Z,9.90
2023-05-09T21:14:27.764Z,9.80
2023-05-09T21:16:57.945Z,9.80
2023-05-09T21:19:24.993Z,9.80
2023-05-09T21:21:51.854Z,9.80
2023-05-09T21:24:18.700Z,9.80
2023-05-09T21:26:45.473Z,9.70
2023-05-09T21:29:12.355Z,9.60
2023-05-09T21:31:39.289Z,9.60
2023-05-09T21:34:10.028Z,9.60
2023-05-09T21:36:38.417Z,9.60
2023-05-09T21:39:09.012Z,9.60
2023-05-09T21:41:36.958Z,9.60
2023-05-09T21:44:04.330Z,9.70
2023-05-09T21:46:34.985Z,9.50
2023-05-09T21:49:02.063Z,9.50
2023-05-09T21:51:29.286Z,9.30
2023-05-09T21:53:56.325Z,9.20
2023-05-09T21:56:23.206Z,9.30
2023-05-09T21:58:50.207Z,9.30
2023-05-09T22:01:20.176Z,9.20
2023-05-09T22:03:47.130Z,9.20
2023-05-09T22:06:14.023Z,9.20
2023-05-09T22:08:41.107Z,9.30
2023-05-09T22:11:07.972Z,9.30
2023-05-09T22:13:36.355Z,9.20
2023-05-09T22:16:04.090Z,9.30
2023-05-09T22:18:31.393Z,9.30
2023-05-09T22:20:58.217Z,9.30
2023-05-09T22:23:25.236Z,9.20
2023-05-09T22:25:52.198Z,9.20
2023-05-09T22:28:19.017Z,9.30
2023-05-09T22:30:45.825Z,9.10
2023-05-09T22:33:12.695Z,9.10
2023-05-09T22:35:39.701Z,9.10
2023-05-09T22:38:06.560Z,9.00
2023-05-09T22:40:33.947Z,9.10
2023-05-09T22:43:00.888Z,9.10
2023-05-09T22:45:27.870Z,9.10
2023-05-09T22:47:54.685Z,9.10
2023-05-09T22:50:21.617Z,9.10
2023-05-09T22:52:48.419Z,9.20
2023-05-09T22:55:15.303Z,9.10
2023-05-09T22:57:42.038Z,9.10
2023-05-09T23:00:09.701Z,9.20
2023-05-09T23:02:36.659Z,9.10
2023-05-09T23:05:03.808Z,9.10
2023-05-09T23:07:30.582Z,9.10
2023-05-09T23:09:57.490Z,9.00
2023-05-09T23:12:24.273Z,9.00
2023-05-09T23:14:51.021Z,8.90
2023-05-09T23:17:17.871Z,8.90
2023-05-09T23:19:45.963Z,9.00
2023-05-09T23:22:12.911Z,9.00
2023-05-09T23:24:39.739Z,9.00
2023-05-09T23:27:06.518Z,8.90
2023-05-09T23:29:33.349Z,8.90
2023-05-09T23:32:00.149Z,9.00
2023-05-09T23:34:26.948Z,9.00
2023-05-09T23:36:53.791Z,9.00
2023-05-09T23:39:20.666Z,8.90
2023-05-09T23:41:47.490Z,9.00
2023-05-09T23:44:14.319Z,9.00
2023-05-09T23:46:41.312Z,9.10
2023-05-09T23:49:08.256Z,9.10
2023-05-09T23:51:35.099Z,9.10
2023-05-09T23:54:01.946Z,9.20
2023-05-09T23:56:28.931Z,9.10
2023-05-09T23:58:55.715Z,9.20
